createdAt,value
2018-04-24T00:00:39.271Z,99.99
2018-04-24T00:01:39.261Z,99.99
2018-04-24T00:02:39.250Z,99.99
2018-04-24T00:03:39.244Z,99.99
2018-04-24T00:04:39.339Z,99.99
2018-04-24T00:05:39.238Z,99.99
2018-04-24T00:06:39.222Z,99.99
2018-04-24T00:07:39.219Z,99.99
2018-04-24T00:08:39.220Z,99.99
2018-04-24T00:09:39.209Z,99.99
2018-04-24T00:10:39.195Z,99.99
2018-04-24T00:11:39.188Z,99.99
2018-04-24T00:12:39.183Z,99.99
2018-04-24T00:13:39.175Z,99.99
2018-04-24T00:14:39.164Z,99.99
2018-04-24T00:15:39.159Z,99.99
2018-04-24T00:16:39.150Z,99.99
2018-04-24T00:17:39.145Z,99.99
2018-04-24T00:18:39.135Z,99.99
2018-04-24T00:19:39.128Z,99.99
2018-04-24T00:20:39.121Z,99.99
2018-04-24T00:21:39.115Z,99.99
2018-04-24T00:22:39.111Z,99.99
2018-04-24T00:23:39.102Z,99.99
2018-04-24T00:24:39.093Z,99.99
2018-04-24T00:25:39.090Z,99.99
2018-04-24T00:26:39.084Z,99.99
2018-04-24T00:27:39.069Z,99.99
2018-04-24T00:28:39.062Z,99.99
2018-04-24T00:29:39.055Z,99.99
2018-04-24T00:30:39.053Z,99.99
2018-04-24T00:31:39.043Z,99.99
2018-04-24T00:32:39.039Z,99.99
2018-04-24T00:33:39.035Z,99.99
2018-04-24T00:34:39.019Z,99.99
2018-04-24T00:35:39.025Z,99.99
2018-04-24T00:36:39.008Z,99.99
2018-04-24T00:37:39.003Z,99.99
2018-04-24T00:38:38.992Z,99.99
2018-04-24T00:39:38.983Z,99.99
2018-04-24T00:40:38.978Z,99.99
2018-04-24T00:41:38.971Z,99.99
2018-04-24T00:42:38.961Z,99.99
2018-04-24T00:43:38.959Z,99.99
2018-04-24T00:44:38.947Z,99.99
2018-04-24T00:45:38.966Z,99.99
2018-04-24T00:46:38.934Z,99.99
2018-04-24T00:47:38.932Z,99.99
2018-04-24T00:48:38.919Z,99.99
2018-04-24T00:49:38.916Z,99.99
2018-04-24T00:50:38.909Z,99.99
2018-04-24T00:51:38.899Z,99.99
2018-04-24T00:52:38.894Z,99.99
2018-04-24T00:53:38.883Z,99.99
2018-04-24T00:54:38.875Z,99.99
2018-04-24T00:55:38.872Z,99.99
2018-04-24T00:56:38.862Z,99.99
2018-04-24T00:57:38.857Z,99.99
2018-04-24T00:58:38.846Z,99.99
2018-04-24T00:59:38.843Z,99.99
2018-04-24T01:00:38.840Z,99.99
2018-04-24T01:01:38.819Z,99.99
2018-04-24T01:02:38.813Z,99.99
2018-04-24T01:03:38.810Z,99.99
2018-04-24T01:04:38.800Z,99.99
2018-04-24T01:05:38.791Z,99.99
2018-04-24T01:06:38.789Z,99.99
2018-04-24T01:07:38.778Z,99.99
2018-04-24T01:08:38.775Z,99.99
2018-04-24T01:09:38.769Z,99.99
2018-04-24T01:10:38.762Z,99.99
2018-04-24T01:11:38.747Z,99.99
2018-04-24T01:12:38.748Z,99.99
2018-04-24T01:13:38.732Z,99.99
2018-04-24T01:14:38.726Z,99.99
2018-04-24T01:15:38.722Z,99.99
2018-04-24T01:16:38.713Z,99.99
2018-04-24T01:17:38.713Z,99.99
2018-04-24T01:18:38.696Z,99.99
2018-04-24T01:19:38.692Z,99.99
2018-04-24T01:20:38.683Z,99.99
2018-04-24T01:21:38.681Z,99.99
2018-04-24T01:22:38.666Z,99.99
2018-04-24T01:23:38.659Z,99.99
2018-04-24T01:24:38.657Z,99.99
2018-04-24T01:25:38.655Z,99.99
2018-04-24T01:26:38.645Z,99.99
2018-04-24T01:27:38.632Z,99.99
2018-04-24T01:28:38.622Z,99.99
2018-04-24T01:29:38.623Z,99.99
2018-04-24T01:30:38.613Z,99.99
2018-04-24T01:31:38.607Z,99.99
2018-04-24T01:32:38.595Z,99.99
2018-04-24T01:33:38.595Z,99.99
2018-04-24T01:34:38.689Z,99.99
2018-04-24T01:35:38.577Z,99.99
2018-04-24T01:36:38.570Z,99.99
2018-04-24T01:37:38.562Z,99.99
2018-04-24T01:38:38.550Z,99.99
2018-04-24T01:39:38.545Z,99.99
2018-04-24T01:40:38.543Z,99.99
2018-04-24T01:41:38.529Z,99.99
2018-04-24T01:42:38.523Z,99.99
2018-04-24T01:43:38.519Z,99.99
2018-04-24T01:44:38.507Z,99.99
2018-04-24T01:45:38.501Z,99.99
2018-04-24T01:46:38.495Z,99.99
2018-04-24T01:47:38.488Z,99.99
2018-04-24T01:48:38.478Z,99.99
2018-04-24T01:49:38.477Z,99.99
2018-04-24T01:50:38.463Z,99.99
2018-04-24T01:51:38.455Z,99.99
2018-04-24T01:52:38.446Z,99.99
2018-04-24T01:53:38.439Z,99.99
2018-04-24T01:54:38.438Z,99.99
2018-04-24T01:55:38.429Z,99.99
2018-04-24T01:56:38.420Z,99.99
2018-04-24T01:57:38.410Z,99.99
2018-04-24T01:58:38.402Z,99.99
2018-04-24T01:59:38.395Z,99.99
2018-04-24T02:00:38.388Z,99.99
2018-04-24T02:01:38.381Z,99.99
2018-04-24T02:02:38.372Z,99.99
2018-04-24T02:03:38.365Z,99.99
2018-04-24T02:04:38.359Z,99.99
2018-04-24T02:05:38.351Z,99.99
2018-04-24T02:06:38.337Z,99.99
2018-04-24T02:07:38.330Z,99.99
2018-04-24T02:08:38.323Z,99.99
2018-04-24T02:09:38.316Z,99.99
2018-04-24T02:10:38.311Z,99.99
2018-04-24T02:11:38.300Z,99.99
2018-04-24T02:12:38.292Z,99.99
2018-04-24T02:13:38.285Z,99.99
2018-04-24T02:14:38.276Z,99.99
2018-04-24T02:15:38.271Z,99.99
2018-04-24T02:16:38.266Z,99.99
2018-04-24T02:17:38.255Z,99.99
2018-04-24T02:18:38.255Z,99.99
2018-04-24T02:19:38.238Z,99.99
2018-04-24T02:20:38.243Z,99.99
2018-04-24T02:21:38.225Z,99.99
2018-04-24T02:22:38.228Z,99.99
2018-04-24T02:23:38.209Z,99.99
2018-04-24T02:24:38.203Z,99.99
2018-04-24T02:25:38.196Z,99.99
2018-04-24T02:26:38.187Z,99.99
2018-04-24T02:27:38.180Z,99.99
2018-04-24T02:28:38.172Z,99.99
2018-04-24T02:29:38.165Z,99.99
2018-04-24T02:30:38.157Z,99.99
2018-04-24T02:31:38.150Z,99.99
2018-04-24T02:32:38.142Z,99.99
2018-04-24T02:33:38.134Z,99.99
2018-04-24T02:34:38.127Z,99.99
2018-04-24T02:35:38.123Z,99.99
2018-04-24T02:36:38.111Z,99.99
2018-04-24T02:37:38.102Z,99.99
2018-04-24T02:38:38.095Z,99.99
2018-04-24T02:39:38.088Z,99.99
2018-04-24T02:40:38.079Z,99.99
2018-04-24T02:41:38.073Z,99.99
2018-04-24T02:42:38.063Z,99.99
2018-04-24T02:43:38.054Z,99.99
2018-04-24T02:44:38.049Z,99.99
2018-04-24T02:45:38.043Z,99.99
2018-04-24T02:46:38.037Z,99.99
2018-04-24T02:47:38.025Z,99.99
2018-04-24T02:48:38.018Z,99.99
2018-04-24T02:49:38.010Z,99.99
2018-04-24T02:50:38.004Z,99.99
2018-04-24T02:51:37.994Z,99.99
2018-04-24T02:52:37.995Z,99.99
2018-04-24T02:53:37.977Z,99.99
2018-04-24T02:54:37.972Z,99.99
2018-04-24T02:55:37.966Z,99.99
2018-04-24T02:56:37.959Z,99.99
2018-04-24T02:57:37.947Z,99.99
2018-04-24T02:58:37.939Z,99.99
2018-04-24T02:59:37.934Z,99.99
2018-04-24T03:00:37.922Z,99.99
2018-04-24T03:01:37.917Z,99.99
2018-04-24T03:02:37.911Z,99.99
2018-04-24T03:03:37.901Z,99.99
2018-04-24T03:04:37.893Z,99.99
2018-04-24T03:05:37.885Z,99.99
2018-04-24T03:06:37.877Z,99.99
2018-04-24T03:07:37.870Z,99.99
2018-04-24T03:08:37.860Z,99.99
2018-04-24T03:09:37.857Z,99.99
2018-04-24T03:10:37.846Z,99.99
2018-04-24T03:11:37.838Z,99.99
2018-04-24T03:12:37.831Z,99.99
2018-04-24T03:13:37.822Z,99.99
2018-04-24T03:14:37.816Z,99.99
2018-04-24T03:15:37.809Z,99.99
2018-04-24T03:16:37.800Z,99.99
2018-04-24T03:17:37.792Z,99.99
2018-04-24T03:18:37.784Z,99.99
2018-04-24T03:19:37.775Z,99.99
2018-04-24T03:20:37.768Z,99.99
2018-04-24T03:21:37.762Z,99.99
2018-04-24T03:22:37.753Z,99.99
2018-04-24T03:23:37.748Z,99.99
2018-04-24T03:24:37.740Z,99.99
2018-04-24T03:25:37.730Z,99.99
2018-04-24T03:26:37.723Z,99.99
2018-04-24T03:27:37.717Z,99.99
2018-04-24T03:28:37.715Z,99.99
2018-04-24T03:29:37.700Z,99.99
2018-04-24T03:30:37.692Z,99.99
2018-04-24T03:31:37.685Z,99.99
2018-04-24T03:32:37.677Z,99.99
2018-04-24T03:33:37.670Z,99.99
2018-04-24T03:34:37.661Z,99.99
2018-04-24T03:35:37.654Z,99.99
2018-04-24T03:36:37.648Z,99.99
2018-04-24T03:37:37.638Z,99.99
2018-04-24T03:38:37.630Z,99.99
2018-04-24T03:39:37.622Z,99.99
2018-04-24T03:40:37.614Z,99.99
2018-04-24T03:41:37.607Z,99.99
2018-04-24T03:42:37.600Z,99.99
2018-04-24T03:43:37.592Z,99.99
2018-04-24T03:44:37.584Z,99.99
2018-04-24T03:45:37.577Z,99.99
2018-04-24T03:46:37.568Z,99.99
2018-04-24T03:47:37.561Z,99.99
2018-04-24T03:48:37.551Z,99.99
2018-04-24T03:49:37.545Z,99.99
2018-04-24T03:50:37.535Z,99.99
2018-04-24T03:51:37.529Z,99.99
2018-04-24T03:52:37.524Z,99.99
2018-04-24T03:53:37.514Z,99.99
2018-04-24T03:54:37.505Z,99.99
2018-04-24T03:55:37.496Z,99.99
2018-04-24T03:56:37.488Z,99.99
2018-04-24T03:57:37.483Z,99.99
2018-04-24T03:58:37.471Z,99.99
2018-04-24T03:59:37.477Z,99.99
2018-04-24T04:00:37.458Z,99.99
2018-04-24T04:01:37.452Z,99.99
2018-04-24T04:02:37.444Z,99.99
2018-04-24T04:03:37.436Z,99.99
2018-04-24T04:04:37.527Z,99.99
2018-04-24T04:05:37.421Z,99.99
2018-04-24T04:06:37.410Z,99.99
2018-04-24T04:07:37.497Z,99.99
2018-04-24T04:08:37.395Z,99.99
2018-04-24T04:09:37.389Z,99.99
2018-04-24T04:10:37.384Z,99.99
2018-04-24T04:11:37.371Z,99.99
2018-04-24T04:12:37.365Z,99.99
2018-04-24T04:13:37.357Z,99.99
2018-04-24T04:14:37.347Z,99.99
2018-04-24T04:15:37.339Z,99.99
2018-04-24T04:16:37.333Z,99.99
2018-04-24T04:17:37.325Z,99.99
2018-04-24T04:18:37.318Z,99.99
2018-04-24T04:19:37.309Z,99.99
2018-04-24T04:20:37.303Z,99.99
2018-04-24T04:21:37.294Z,99.99
2018-04-24T04:22:37.286Z,99.99
2018-04-24T04:23:37.276Z,99.99
2018-04-24T04:24:37.271Z,99.99
2018-04-24T04:25:37.263Z,99.99
2018-04-24T04:26:37.259Z,99.99
2018-04-24T04:27:37.252Z,99.99
2018-04-24T04:28:37.240Z,99.99
2018-04-24T04:29:37.235Z,99.99
2018-04-24T04:30:37.223Z,99.99
2018-04-24T04:31:37.215Z,99.99
2018-04-24T04:32:37.207Z,99.99
2018-04-24T04:33:37.198Z,99.99
2018-04-24T04:34:37.199Z,99.99
2018-04-24T04:35:37.183Z,99.99
2018-04-24T04:36:37.176Z,99.99
2018-04-24T04:37:37.168Z,99.99
2018-04-24T04:38:37.158Z,99.99
2018-04-24T04:39:37.152Z,99.99
2018-04-24T04:40:37.144Z,99.99
2018-04-24T04:41:37.136Z,99.99
2018-04-24T04:42:37.128Z,99.99
2018-04-24T04:43:37.120Z,99.99
2018-04-24T04:44:37.111Z,99.99
2018-04-24T04:45:37.109Z,99.99
2018-04-24T04:46:37.095Z,99.99
2018-04-24T04:47:37.088Z,99.99
2018-04-24T04:48:37.080Z,99.99
2018-04-24T04:49:37.074Z,99.99
2018-04-24T04:50:37.063Z,99.99
2018-04-24T04:51:37.056Z,99.99
2018-04-24T04:52:37.058Z,99.99
2018-04-24T04:53:37.043Z,99.99
2018-04-24T04:54:37.031Z,99.99
2018-04-24T04:55:37.024Z,99.99
2018-04-24T04:56:37.017Z,99.99
2018-04-24T04:57:37.008Z,99.99
2018-04-24T04:58:36.998Z,99.99
2018-04-24T04:59:36.997Z,99.99
2018-04-24T05:00:36.984Z,99.99
2018-04-24T05:01:36.983Z,99.99
2018-04-24T05:02:36.967Z,99.99
2018-04-24T05:03:36.960Z,99.99
2018-04-24T05:04:37.054Z,99.99
2018-04-24T05:05:36.950Z,99.99
2018-04-24T05:06:36.934Z,99.99
2018-04-24T05:07:36.926Z,99.99
2018-04-24T05:08:36.918Z,99.99
2018-04-24T05:09:36.911Z,99.99
2018-04-24T05:10:36.901Z,99.99
2018-04-24T05:11:36.894Z,99.99
2018-04-24T05:12:36.887Z,99.99
2018-04-24T05:13:36.877Z,99.99
2018-04-24T05:14:36.869Z,99.99
2018-04-24T05:15:36.861Z,99.99
2018-04-24T05:16:36.853Z,99.99
2018-04-24T05:17:36.845Z,99.99
2018-04-24T05:18:36.835Z,99.99
2018-04-24T05:19:36.828Z,99.99
2018-04-24T05:20:36.818Z,99.99
2018-04-24T05:21:36.812Z,99.99
2018-04-24T05:22:36.803Z,99.99
2018-04-24T05:23:36.795Z,99.99
2018-04-24T05:24:36.786Z,99.99
2018-04-24T05:25:36.778Z,99.99
2018-04-24T05:26:36.779Z,99.99
2018-04-24T05:27:36.762Z,99.99
2018-04-24T05:28:36.752Z,99.99
2018-04-24T05:29:36.745Z,99.99
2018-04-24T05:30:36.736Z,99.99
2018-04-24T05:31:36.728Z,99.99
2018-04-24T05:32:36.721Z,99.99
2018-04-24T05:33:36.711Z,99.99
2018-04-24T05:34:36.703Z,99.99
2018-04-24T05:35:36.694Z,99.99
2018-04-24T05:36:36.686Z,99.99
2018-04-24T05:37:36.678Z,99.99
2018-04-24T05:38:36.669Z,99.99
2018-04-24T05:39:36.661Z,99.99
2018-04-24T05:40:36.657Z,99.99
2018-04-24T05:41:36.644Z,99.99
2018-04-24T05:42:36.637Z,99.99
2018-04-24T05:43:36.627Z,99.99
2018-04-24T05:44:36.619Z,99.99
2018-04-24T05:45:36.611Z,99.99
2018-04-24T05:46:36.604Z,99.99
2018-04-24T05:47:36.594Z,99.99
2018-04-24T05:48:36.585Z,99.99
2018-04-24T05:49:36.578Z,99.99
2018-04-24T05:50:36.573Z,99.99
2018-04-24T05:51:36.561Z,99.99
2018-04-24T05:52:36.555Z,99.99
2018-04-24T05:53:36.545Z,99.99
2018-04-24T05:54:36.537Z,99.99
2018-04-24T05:55:36.529Z,99.99
2018-04-24T05:56:36.518Z,99.99
2018-04-24T05:57:36.512Z,99.99
2018-04-24T05:58:36.666Z,99.99
2018-04-24T05:59:36.495Z,99.99
2018-04-24T06:00:36.486Z,99.99
2018-04-24T06:01:36.479Z,99.99
2018-04-24T06:02:36.469Z,99.99
2018-04-24T06:03:36.460Z,99.99
2018-04-24T06:04:36.453Z,99.99
2018-04-24T06:05:36.453Z,99.99
2018-04-24T06:06:36.436Z,99.99
2018-04-24T06:07:36.428Z,99.99
2018-04-24T06:08:36.435Z,99.99
2018-04-24T06:09:36.412Z,99.99
2018-04-24T06:10:36.477Z,99.99
2018-04-24T06:11:36.395Z,99.99
2018-04-24T06:12:36.387Z,99.99
2018-04-24T06:13:36.383Z,99.99
2018-04-24T06:14:36.370Z,99.99
2018-04-24T06:15:36.362Z,99.99
2018-04-24T06:16:36.454Z,99.99
2018-04-24T06:17:36.346Z,99.99
2018-04-24T06:18:36.337Z,99.99
2018-04-24T06:19:36.328Z,99.99
2018-04-24T06:20:36.321Z,99.99
2018-04-24T06:21:36.312Z,99.99
2018-04-24T06:22:36.385Z,99.99
2018-04-24T06:23:36.296Z,99.99
2018-04-24T06:24:36.287Z,99.99
2018-04-24T06:25:36.278Z,99.99
2018-04-24T06:26:36.270Z,99.99
2018-04-24T06:27:36.262Z,99.99
2018-04-24T06:28:36.348Z,99.99
2018-04-24T06:29:36.247Z,99.99
2018-04-24T06:30:36.237Z,99.99
2018-04-24T06:31:36.229Z,99.99
2018-04-24T06:32:36.232Z,99.99
2018-04-24T06:33:36.213Z,99.99
2018-04-24T06:34:36.204Z,99.99
2018-04-24T06:35:36.196Z,99.99
2018-04-24T06:36:36.189Z,99.99
2018-04-24T06:37:36.180Z,99.99
2018-04-24T06:38:36.171Z,99.99
2018-04-24T06:39:36.164Z,99.99
2018-04-24T06:40:36.161Z,99.99
2018-04-24T06:41:36.149Z,99.99
2018-04-24T06:42:36.139Z,99.99
2018-04-24T06:43:36.128Z,99.99
2018-04-24T06:44:36.122Z,99.99
2018-04-24T06:45:36.114Z,99.99
2018-04-24T06:46:36.105Z,99.99
2018-04-24T06:47:36.097Z,99.99
2018-04-24T06:48:36.089Z,99.99
2018-04-24T06:49:36.081Z,99.99
2018-04-24T06:50:36.072Z,99.99
2018-04-24T06:51:36.064Z,99.99
2018-04-24T06:52:36.061Z,99.99
2018-04-24T06:53:36.053Z,99.99
2018-04-24T06:54:36.040Z,99.99
2018-04-24T06:55:36.031Z,99.99
2018-04-24T06:56:36.022Z,99.99
2018-04-24T06:57:36.015Z,99.99
2018-04-24T06:58:36.004Z,99.99
2018-04-24T06:59:35.998Z,99.99
2018-04-24T07:00:36.078Z,99.99
2018-04-24T07:01:35.984Z,99.99
2018-04-24T07:02:35.973Z,99.99
2018-04-24T07:03:35.968Z,99.99
2018-04-24T07:04:36.077Z,99.99
2018-04-24T07:05:35.949Z,99.99
2018-04-24T07:06:35.940Z,99.99
2018-04-24T07:07:35.932Z,99.99
2018-04-24T07:08:35.921Z,99.99
2018-04-24T07:09:35.915Z,99.99
2018-04-24T07:10:36.006Z,99.99
2018-04-24T07:11:35.898Z,99.99
2018-04-24T07:12:35.890Z,99.99
2018-04-24T07:13:35.885Z,99.99
2018-04-24T07:14:35.872Z,99.99
2018-04-24T07:15:35.869Z,99.99
2018-04-24T07:16:35.856Z,99.99
2018-04-24T07:17:35.847Z,99.99
2018-04-24T07:18:35.837Z,99.99
2018-04-24T07:19:35.828Z,99.99
2018-04-24T07:20:35.821Z,99.99
2018-04-24T07:21:35.813Z,99.99
2018-04-24T07:22:35.803Z,99.99
2018-04-24T07:23:35.796Z,99.99
2018-04-24T07:24:35.789Z,99.99
2018-04-24T07:25:35.782Z,99.99
2018-04-24T07:26:35.769Z,99.99
2018-04-24T07:27:35.761Z,99.99
2018-04-24T07:28:35.753Z,99.99
2018-04-24T07:29:35.745Z,99.99
2018-04-24T07:30:35.734Z,99.99
2018-04-24T07:31:35.727Z,99.99
2018-04-24T07:32:35.719Z,99.99
2018-04-24T07:33:35.711Z,99.99
2018-04-24T07:34:35.800Z,99.99
2018-04-24T07:35:35.692Z,99.99
2018-04-24T07:36:35.683Z,99.99
2018-04-24T07:37:35.675Z,99.99
2018-04-24T07:38:35.666Z,99.99
2018-04-24T07:39:35.657Z,99.99
2018-04-24T07:40:35.647Z,99.99
2018-04-24T07:41:35.640Z,99.99
2018-04-24T07:42:35.629Z,99.99
2018-04-24T07:43:35.623Z,99.99
2018-04-24T07:44:35.613Z,99.99
2018-04-24T07:45:35.605Z,99.99
2018-04-24T07:46:35.612Z,99.99
2018-04-24T07:47:35.587Z,99.99
2018-04-24T07:48:35.581Z,99.99
2018-04-24T07:49:35.569Z,99.99
2018-04-24T07:50:35.560Z,99.99
2018-04-24T07:51:35.551Z,99.99
2018-04-24T07:52:35.544Z,99.99
2018-04-24T07:53:35.534Z,99.99
2018-04-24T07:54:35.524Z,99.99
2018-04-24T07:55:35.518Z,99.99
2018-04-24T07:56:35.507Z,99.99
2018-04-24T07:57:35.500Z,99.99
2018-04-24T07:58:35.489Z,99.99
2018-04-24T07:59:35.481Z,99.99
2018-04-24T08:00:35.473Z,99.99
2018-04-24T08:01:35.464Z,99.99
2018-04-24T08:02:35.455Z,99.99
2018-04-24T08:03:35.446Z,99.99
2018-04-24T08:04:35.437Z,99.99
2018-04-24T08:05:35.429Z,99.99
2018-04-24T08:06:35.423Z,99.99
2018-04-24T08:07:35.413Z,99.99
2018-04-24T08:08:35.402Z,99.99
2018-04-24T08:09:35.392Z,99.99
2018-04-24T08:10:35.383Z,99.99
2018-04-24T08:11:35.375Z,99.99
2018-04-24T08:12:35.369Z,99.99
2018-04-24T08:13:35.357Z,99.99
2018-04-24T08:14:35.350Z,99.99
2018-04-24T08:15:35.339Z,99.99
2018-04-24T08:16:35.411Z,99.99
2018-04-24T08:17:35.321Z,99.99
2018-04-24T08:18:35.311Z,99.99
2018-04-24T08:19:35.306Z,99.99
2018-04-24T08:20:35.293Z,99.99
2018-04-24T08:21:35.282Z,99.99
2018-04-24T08:22:35.274Z,99.99
2018-04-24T08:23:35.265Z,99.99
2018-04-24T08:24:35.260Z,99.99
2018-04-24T08:25:35.247Z,99.99
2018-04-24T08:26:35.237Z,99.99
2018-04-24T08:27:35.234Z,99.99
2018-04-24T08:28:35.222Z,99.99
2018-04-24T08:29:35.214Z,99.99
2018-04-24T08:30:35.200Z,99.99
2018-04-24T08:31:35.191Z,99.99
2018-04-24T08:32:35.186Z,99.99
2018-04-24T08:33:35.246Z,99.99
2018-04-24T08:34:35.164Z,99.99
2018-04-24T08:35:35.155Z,99.99
2018-04-24T08:36:35.150Z,99.99
2018-04-24T13:11:13.439Z,87.15
2018-04-24T13:12:13.188Z,86.80
2018-04-24T13:13:13.178Z,85.69
2018-04-24T13:14:13.172Z,86.37
2018-04-24T13:15:13.168Z,85.44
2018-04-24T13:16:13.167Z,84.96
2018-04-24T13:17:13.166Z,84.57
2018-04-24T13:18:13.163Z,84.61
2018-04-24T13:19:13.156Z,84.67
2018-04-24T13:20:13.152Z,85.60
2018-04-24T13:21:13.150Z,85.44
2018-04-24T13:22:13.145Z,84.09
2018-04-24T13:23:13.141Z,84.03
2018-04-24T13:24:13.139Z,82.53
2018-04-24T13:25:13.135Z,83.47
2018-04-24T13:26:13.282Z,84.72
2018-04-24T13:27:13.126Z,84.05
2018-04-24T13:28:13.131Z,84.57
2018-04-24T13:29:13.122Z,84.67
2018-04-24T13:30:13.119Z,84.28
2018-04-24T13:31:13.122Z,83.54
2018-04-24T13:32:13.111Z,82.57
2018-04-24T13:33:13.114Z,81.51
2018-04-24T13:34:13.103Z,82.09
2018-04-24T13:35:13.101Z,82.09
2018-04-24T13:36:13.097Z,82.09
2018-04-24T13:37:13.177Z,82.09
2018-04-24T13:38:13.090Z,82.63
2018-04-24T13:39:13.088Z,82.73
2018-04-24T13:40:13.084Z,83.60
2018-04-24T13:41:13.088Z,84.57
2018-04-24T13:42:13.163Z,82.92
2018-04-24T13:43:13.175Z,80.44
2018-04-24T13:44:13.072Z,80.50
2018-04-24T13:45:13.070Z,81.31
2018-04-24T13:46:13.064Z,80.34
2018-04-24T13:47:13.066Z,79.86
2018-04-24T13:48:13.058Z,78.21
2018-04-24T13:49:13.056Z,78.40
2018-04-24T13:50:13.055Z,78.59
2018-04-24T13:51:13.049Z,78.50
2018-04-24T13:52:13.055Z,78.89
2018-04-24T13:53:13.044Z,78.02
2018-04-24T13:54:13.040Z,77.67
2018-04-24T13:55:13.041Z,78.15
2018-04-24T13:56:13.034Z,79.12
2018-04-24T13:57:13.033Z,78.15
2018-04-24T13:58:13.030Z,77.18
2018-04-24T13:59:13.029Z,76.34
2018-04-24T14:00:13.030Z,76.44
2018-04-24T14:01:13.025Z,75.85
2018-04-24T14:02:13.022Z,75.27
2018-04-24T14:03:13.017Z,76.44
2018-04-24T14:04:13.030Z,75.51
2018-04-24T14:05:13.017Z,73.46
2018-04-24T14:06:13.007Z,73.66
2018-04-24T14:07:13.006Z,74.24
2018-04-24T14:08:13.062Z,75.51
2018-04-24T14:09:12.999Z,75.41
2018-04-24T14:10:12.997Z,75.02
2018-04-24T14:11:12.995Z,73.18
2018-04-24T14:12:13.058Z,72.17
2018-04-24T14:13:12.991Z,73.27
2018-04-24T14:14:12.986Z,73.24
2018-04-24T14:15:12.985Z,74.07
2018-04-24T14:16:12.983Z,75.30
2018-04-24T14:17:12.982Z,75.88
2018-04-24T14:18:12.976Z,77.49
2018-04-24T14:19:13.072Z,78.13
2018-04-24T14:20:12.975Z,78.13
2018-04-24T14:21:12.970Z,76.81
2018-04-24T14:22:12.967Z,77.29
2018-04-24T14:23:12.962Z,77.49
2018-04-24T14:24:12.962Z,76.75
2018-04-24T14:25:12.957Z,76.85
2018-04-24T14:26:12.963Z,76.27
2018-04-24T14:27:12.952Z,75.04
2018-04-24T14:28:12.948Z,75.24
2018-04-24T14:29:12.946Z,73.88
2018-04-24T14:30:12.942Z,74.07
2018-04-24T14:31:12.939Z,74.37
2018-04-24T14:32:12.937Z,74.50
2018-04-24T14:33:12.935Z,74.60
2018-04-24T14:34:12.931Z,73.04
2018-04-24T14:35:12.927Z,71.97
2018-04-24T14:36:12.926Z,70.65
2018-04-24T14:37:12.925Z,70.06
2018-04-24T14:38:12.968Z,69.48
2018-04-24T14:39:12.922Z,69.51
2018-04-24T14:40:12.917Z,68.35
2018-04-24T14:41:12.915Z,70.29
2018-04-24T14:42:12.911Z,70.00
2018-04-24T14:43:12.910Z,69.81
2018-04-24T14:44:12.908Z,69.51
2018-04-24T14:45:12.906Z,68.44
2018-04-24T14:46:12.904Z,67.47
2018-04-24T14:47:12.901Z,67.57
2018-04-24T14:48:12.898Z,67.63
2018-04-24T14:49:12.897Z,68.12
2018-04-24T14:50:12.894Z,67.76
2018-04-24T14:51:12.893Z,67.57
2018-04-24T14:52:12.915Z,67.93
2018-04-24T14:53:12.896Z,69.58
2018-04-24T14:54:12.884Z,69.87
2018-04-24T14:55:12.883Z,70.84
2018-04-24T14:56:12.881Z,70.26
2018-04-24T14:57:12.879Z,69.96
2018-04-24T14:58:12.883Z,69.87
2018-04-24T14:59:12.872Z,69.77
2018-04-24T15:00:12.872Z,70.03
2018-04-24T15:01:12.868Z,70.32
2018-04-24T15:02:12.866Z,70.09
2018-04-24T15:03:12.863Z,70.09
2018-04-24T15:04:12.867Z,70.87
2018-04-24T15:05:12.860Z,71.12
2018-04-24T15:06:12.855Z,71.61
2018-04-24T15:07:12.882Z,72.67
2018-04-24T15:08:12.850Z,71.90
2018-04-24T15:09:12.847Z,71.61
2018-04-24T15:10:12.843Z,71.61
2018-04-24T15:11:12.840Z,71.80
2018-04-24T15:12:12.838Z,71.61
2018-04-24T15:13:12.837Z,71.86
2018-04-24T15:14:12.832Z,72.19
2018-04-24T15:15:12.830Z,72.55
2018-04-24T15:16:12.825Z,72.74
2018-04-24T15:17:12.823Z,73.22
2018-04-24T15:18:12.822Z,73.52
2018-04-24T15:19:12.817Z,73.80
2018-04-24T15:20:12.812Z,73.09
2018-04-24T15:21:12.811Z,72.89
2018-04-24T15:22:12.807Z,72.31
2018-04-24T15:23:12.803Z,72.80
2018-04-24T15:24:12.800Z,72.22
2018-04-24T15:25:12.796Z,71.73
2018-04-24T15:26:12.793Z,71.34
2018-04-24T15:27:12.789Z,71.83
2018-04-24T15:28:12.804Z,72.02
2018-04-24T15:29:12.782Z,72.31
2018-04-24T15:30:12.778Z,72.99
2018-04-24T15:31:12.779Z,73.54
2018-04-24T15:32:12.772Z,73.44
2018-04-24T15:33:12.769Z,74.06
2018-04-24T15:34:12.763Z,73.77
2018-04-24T15:35:12.762Z,73.38
2018-04-24T15:36:12.757Z,72.80
2018-04-24T15:37:12.752Z,72.99
2018-04-24T15:38:12.750Z,72.99
2018-04-24T15:39:12.747Z,72.80
2018-04-24T15:40:12.742Z,73.09
2018-04-24T15:41:12.739Z,72.51
2018-04-24T15:42:12.734Z,71.54
2018-04-24T15:43:12.731Z,71.54
2018-04-24T15:44:12.727Z,73.09
2018-04-24T15:45:12.726Z,72.61
2018-04-24T15:46:12.721Z,72.22
2018-04-24T15:47:12.716Z,71.34
2018-04-24T15:48:12.713Z,69.21
2018-04-24T15:49:12.707Z,69.60
2018-04-24T15:50:12.705Z,69.21
2018-04-24T15:51:12.701Z,65.43
2018-04-24T15:52:12.698Z,64.75
2018-04-24T15:53:12.694Z,65.14
2018-04-24T15:54:12.689Z,64.56
2018-04-24T15:55:12.687Z,64.27
2018-04-24T15:56:12.687Z,64.37
2018-04-24T15:57:12.728Z,64.56
2018-04-24T15:58:12.675Z,64.85
2018-04-24T15:59:12.672Z,65.34
2018-04-24T16:00:12.669Z,66.30
2018-04-24T16:01:12.667Z,66.69
2018-04-24T16:02:12.666Z,67.66
2018-04-24T16:03:12.677Z,67.37
2018-04-24T16:04:12.654Z,67.57
2018-04-24T16:05:12.650Z,67.85
2018-04-24T16:06:12.647Z,68.24
2018-04-24T16:07:12.643Z,69.31
2018-04-24T16:08:12.641Z,69.60
2018-04-24T16:09:12.637Z,69.89
2018-04-24T16:10:12.633Z,69.02
2018-04-24T16:11:12.629Z,69.50
2018-04-24T16:12:12.625Z,68.24
2018-04-24T16:13:12.620Z,66.30
2018-04-24T16:14:12.619Z,64.20
2018-04-24T16:15:12.616Z,64.40
2018-04-24T16:16:12.610Z,66.44
2018-04-24T16:17:12.608Z,66.24
2018-04-24T16:18:12.602Z,65.75
2018-04-24T16:19:12.603Z,64.59
2018-04-24T16:20:12.596Z,64.88
2018-04-24T16:21:12.593Z,66.05
2018-04-24T16:22:12.588Z,64.98
2018-04-24T16:23:12.589Z,64.59
2018-04-24T16:24:12.658Z,64.59
2018-04-24T16:25:12.578Z,64.40
2018-04-24T16:26:12.579Z,64.98
2018-04-24T16:27:12.624Z,65.30
2018-04-24T16:28:12.569Z,64.72
2018-04-24T16:29:12.566Z,63.26
2018-04-24T16:30:12.606Z,61.42
2018-04-24T16:31:12.557Z,62.01
2018-04-24T16:32:12.555Z,62.68
2018-04-24T16:33:12.552Z,62.39
2018-04-24T16:34:12.549Z,61.32
2018-04-24T16:35:12.544Z,61.71
2018-04-24T16:36:12.544Z,62.29
2018-04-24T16:37:12.538Z,62.49
2018-04-24T16:38:12.533Z,62.59
2018-04-24T16:39:12.535Z,62.49
2018-04-24T16:40:12.533Z,62.98
2018-04-24T16:41:12.529Z,63.17
2018-04-24T16:42:12.526Z,63.36
2018-04-24T16:43:12.522Z,63.17
2018-04-24T16:44:12.521Z,63.17
2018-04-24T16:45:12.516Z,63.68
2018-04-24T16:46:12.516Z,64.92
2018-04-24T16:47:12.511Z,64.62
2018-04-24T16:48:12.512Z,65.30
2018-04-24T16:49:12.503Z,65.50
2018-04-24T16:50:12.501Z,64.82
2018-04-24T16:51:12.503Z,64.95
2018-04-24T16:52:12.497Z,63.39
2018-04-24T16:53:12.490Z,62.52
2018-04-24T16:54:12.487Z,62.71
2018-04-24T16:55:12.484Z,63.49
2018-04-24T16:56:12.509Z,65.72
2018-04-24T16:57:12.477Z,67.47
2018-04-24T16:58:12.475Z,69.51
2018-04-24T16:59:12.472Z,70.09
2018-04-24T17:00:12.470Z,71.94
2018-04-24T17:01:12.466Z,72.33
2018-04-24T17:02:12.466Z,73.07
2018-04-24T17:03:12.460Z,73.46
2018-04-24T17:04:12.457Z,73.84
2018-04-24T17:05:12.454Z,72.87
2018-04-24T17:06:12.458Z,72.67
2018-04-24T17:07:12.450Z,74.04
2018-04-24T17:08:12.443Z,74.62
2018-04-24T17:09:12.443Z,74.62
2018-04-24T17:10:12.440Z,74.43
2018-04-24T17:11:12.439Z,75.10
2018-04-24T17:12:12.435Z,76.07
2018-04-24T17:13:12.430Z,75.78
2018-04-24T17:14:12.427Z,74.91
2018-04-24T17:15:12.423Z,74.91
2018-04-24T17:16:12.424Z,75.59
2018-04-24T17:17:12.417Z,77.98
2018-04-24T17:18:12.414Z,80.50
2018-04-24T17:19:12.411Z,81.85
2018-04-24T17:20:12.407Z,83.95
2018-04-24T17:21:12.409Z,84.14
2018-04-24T17:22:12.399Z,83.85
2018-04-24T17:23:12.395Z,83.85
2018-04-24T17:24:12.398Z,84.53
2018-04-24T17:25:12.392Z,84.77
2018-04-24T17:26:12.385Z,85.60